Time;durP1;ratioP1;P1;durP2;ratioP2;P2;SDS_P1;SDS_P2;PMS_P1;PMS_P2;Temp;Humidity;BMP_temperature;BMP_pressure;BME280_temperature;BME280_humidity;BME280_pressure;Samples;Min_cycle;Max_cycle;Signal;HPM_P1;HPM_P2
2023/03/18 00:01:04;;;;;;;1.42;0.90;;;11.40;99.90;;;;;;5075247;28;20237;-79
2023/03/18 00:03:31;;;;;;;0.85;0.85;;;11.40;99.90;;;;;;5058464;28;20314;-80
2023/03/18 00:06:06;;;;;;;0.60;0.60;;;11.40;99.90;;;;;;5055474;28;20198;-80
2023/03/18 00:08:33;;;;;;;0.50;0.50;;;11.40;99.90;;;;;;5063006;28;21048;-80
2023/03/18 00:11:01;;;;;;;0.50;0.40;;;11.40;99.90;;;;;;5059342;28;20520;-80
2023/03/18 00:13:28;;;;;;;0.90;0.73;;;11.40;99.90;;;;;;5059280;28;20972;-79
2023/03/18 00:15:55;;;;;;;0.50;0.50;;;11.50;99.90;;;;;;5067042;28;20567;-79
2023/03/18 00:18:23;;;;;;;0.80;0.80;;;11.40;99.90;;;;;;5059868;28;20444;-79
2023/03/18 00:20:50;;;;;;;3.60;1.35;;;11.50;99.90;;;;;;5060806;28;20286;-80
2023/03/18 00:23:17;;;;;;;0.95;0.95;;;11.50;99.90;;;;;;5070972;28;20222;-80
2023/03/18 00:25:47;;;;;;;0.50;0.50;;;11.50;99.90;;;;;;5060797;28;20194;-80
2023/03/18 00:28:14;;;;;;;0.63;0.63;;;11.50;99.90;;;;;;5058812;28;20282;-77
2023/03/18 00:30:41;;;;;;;1.67;1.58;;;11.40;99.90;;;;;;5066425;28;20524;-80
2023/03/18 00:33:09;;;;;;;1.47;0.97;;;11.50;99.90;;;;;;5058881;28;20218;-78
2023/03/18 00:35:38;;;;;;;0.90;0.57;;;11.50;99.90;;;;;;5058588;28;20583;-80
2023/03/18 00:38:07;;;;;;;1.23;1.20;;;11.60;99.90;;;;;;5078839;28;20444;-81
2023/03/18 00:40:52;;;;;;;1.70;1.60;;;11.50;99.90;;;;;;5070014;28;20190;-79
2023/03/18 00:43:21;;;;;;;2.42;1.60;;;11.60;99.90;;;;;;5072680;28;20520;-80
2023/03/18 00:45:49;;;;;;;0.50;0.40;;;11.60;99.90;;;;;;5062664;28;20438;-80
2023/03/18 00:48:16;;;;;;;5.60;1.00;;;11.60;99.90;;;;;;5072818;28;20248;-78
2023/03/18 00:50:45;;;;;;;0.50;0.50;;;11.60;99.90;;;;;;5066329;28;20441;-79
2023/03/18 00:53:13;;;;;;;0.73;0.73;;;11.50;99.90;;;;;;5058812;28;20465;-80
2023/03/18 00:55:40;;;;;;;0.50;0.40;;;11.60;99.90;;;;;;5058439;28;20474;-79
2023/03/18 00:58:07;;;;;;;0.87;0.87;;;11.50;99.90;;;;;;5058699;28;20444;-81
2023/03/18 01:00:34;;;;;;;0.50;0.40;;;11.60;99.90;;;;;;5057853;28;20490;-80
2023/03/18 01:03:01;;;;;;;0.50;0.40;;;11.50;99.90;;;;;;5057998;28;20678;-81
2023/03/18 01:05:28;;;;;;;0.50;0.40;;;11.40;99.90;;;;;;5058711;28;20194;-80
2023/03/18 01:07:56;;;;;;;0.60;0.50;;;11.40;99.90;;;;;;5058105;28;20278;-80
2023/03/18 01:10:24;;;;;;;0.55;0.52;;;11.40;99.90;;;;;;5073377;28;20568;-80
2023/03/18 01:12:51;;;;;;;0.50;0.40;;;11.40;99.90;;;;;;5058949;28;20223;-79
2023/03/18 01:15:20;;;;;;;0.50;0.50;;;11.40;99.90;;;;;;5058139;28;20329;-81
2023/03/18 01:17:49;;;;;;;1.63;1.20;;;11.40;99.90;;;;;;5060107;28;20195;-79
2023/03/18 01:20:18;;;;;;;1.35;0.82;;;11.30;99.90;;;;;;5063388;28;20198;-79
2023/03/18 01:22:45;;;;;;;0.50;0.40;;;11.30;99.90;;;;;;5057316;28;20653;-80
2023/03/18 01:25:15;;;;;;;1.80;1.70;;;11.30;99.90;;;;;;5058115;28;20195;-78
2023/03/18 01:27:42;;;;;;;1.67;1.58;;;11.30;99.90;;;;;;5058528;28;20198;-79
2023/03/18 01:30:12;;;;;;;0.50;0.40;;;11.30;99.90;;;;;;5064510;28;20197;-79
2023/03/18 01:32:40;;;;;;;1.20;1.20;;;11.30;99.90;;;;;;5066973;28;20584;-80
2023/03/18 01:35:07;;;;;;;1.13;1.03;;;11.30;99.90;;;;;;5064592;28;20198;-80
2023/03/18 01:37:34;;;;;;;0.60;0.50;;;11.40;99.90;;;;;;5065513;28;20461;-79
2023/03/18 01:40:01;;;;;;;0.82;0.82;;;11.40;99.90;;;;;;5056864;28;20201;-80
2023/03/18 01:42:30;;;;;;;1.45;0.70;;;11.50;99.90;;;;;;5056969;28;20310;-80
2023/03/18 01:45:18;;;;;;;0.50;0.40;;;11.60;99.90;;;;;;5064968;28;20191;-81
2023/03/18 01:47:46;;;;;;;1.20;1.13;;;11.50;99.90;;;;;;5065083;28;20258;-79
2023/03/18 01:50:14;;;;;;;0.60;0.50;;;11.60;99.90;;;;;;5061757;28;20198;-79
2023/03/18 01:52:43;;;;;;;0.50;0.40;;;11.60;99.90;;;;;;5059178;28;20218;-80
2023/03/18 01:55:14;;;;;;;1.43;0.80;;;11.60;99.90;;;;;;5056621;28;20209;-79
2023/03/18 01:57:44;;;;;;;1.23;0.85;;;11.60;99.90;;;;;;5065154;28;20492;-79
2023/03/18 02:00:12;;;;;;;0.50;0.40;;;11.60;99.90;;;;;;5056899;28;20199;-80
2023/03/18 02:02:41;;;;;;;0.50;0.40;;;11.70;99.90;;;;;;5056819;28;20310;-79
2023/03/18 02:05:11;;;;;;;0.50;0.40;;;11.70;99.90;;;;;;5057201;28;20469;-79
2023/03/18 02:07:41;;;;;;;0.50;0.40;;;11.60;99.90;;;;;;5064434;28;20531;-80
2023/03/18 02:10:12;;;;;;;0.50;0.40;;;11.70;99.90;;;;;;5061417;28;20193;-79
2023/03/18 02:12:41;;;;;;;0.50;0.40;;;11.70;99.90;;;;;;5059180;28;20457;-80
2023/03/18 02:15:13;;;;;;;1.33;0.60;;;11.70;99.90;;;;;;5061412;28;20198;-80
2023/03/18 02:17:44;;;;;;;0.60;0.57;;;11.70;99.90;;;;;;5068922;28;20482;-78
2023/03/18 02:20:23;;;;;;;0.50;0.40;;;11.70;99.90;;;;;;5067706;28;20441;-79
2023/03/18 02:22:52;;;;;;;0.50;0.40;;;11.70;99.90;;;;;;5060018;28;20875;-79
2023/03/18 02:25:31;;;;;;;0.50;0.40;;;11.60;99.90;;;;;;5062580;28;20448;-80
2023/03/18 02:28:02;;;;;;;0.50;0.40;;;11.70;99.90;;;;;;5064351;28;20528;-79
2023/03/18 02:30:33;;;;;;;0.50;0.50;;;11.70;99.90;;;;;;5063583;28;20450;-79
2023/03/18 02:33:01;;;;;;;0.50;0.40;;;11.70;99.90;;;;;;5064354;28;20453;-80
2023/03/18 02:35:30;;;;;;;0.50;0.40;;;11.60;99.90;;;;;;5063685;28;20447;-80
2023/03/18 02:37:57;;;;;;;0.50;0.40;;;11.60;99.90;;;;;;5056795;28;20469;-79
2023/03/18 02:40:26;;;;;;;0.60;0.50;;;11.50;99.90;;;;;;5063926;28;20289;-80
2023/03/18 02:42:53;;;;;;;0.50;0.40;;;11.40;99.90;;;;;;5064370;28;20214;-80
2023/03/18 02:45:35;;;;;;;0.50;0.40;;;11.30;99.90;;;;;;5065714;28;20191;-79
2023/03/18 02:48:05;;;;;;;0.50;0.40;;;11.20;99.90;;;;;;5066500;28;20190;-79
2023/03/18 02:50:33;;;;;;;0.67;0.67;;;11.10;99.90;;;;;;5058548;28;20199;-81
2023/03/18 02:53:02;;;;;;;0.50;0.40;;;11.10;99.90;;;;;;5064192;28;20488;-81
2023/03/18 02:55:29;;;;;;;0.50;0.40;;;11.00;99.90;;;;;;5064389;28;20202;-79
2023/03/18 02:57:56;;;;;;;0.50;0.40;;;10.90;99.90;;;;;;5057563;28;20200;-79
2023/03/18 03:00:24;;;;;;;0.50;0.40;;;10.80;99.90;;;;;;5072618;28;20294;-79
2023/03/18 03:02:51;;;;;;;0.50;0.50;;;10.80;99.90;;;;;;5056541;28;20232;-79
2023/03/18 03:05:19;;;;;;;0.50;0.40;;;10.70;99.90;;;;;;5056274;28;20195;-80
2023/03/18 03:07:46;;;;;;;0.65;0.65;;;10.70;99.90;;;;;;5057461;28;20190;-80
2023/03/18 03:10:13;;;;;;;0.50;0.40;;;10.70;99.90;;;;;;5061944;28;20206;-81
2023/03/18 03:12:40;;;;;;;0.50;0.40;;;10.70;99.90;;;;;;5064122;28;20310;-80
2023/03/18 03:15:08;;;;;;;0.50;0.50;;;10.80;99.90;;;;;;5063019;28;20194;-81
2023/03/18 03:17:36;;;;;;;0.75;0.75;;;10.90;99.90;;;;;;5055522;28;20276;-80
2023/03/18 03:20:05;;;;;;;0.50;0.40;;;10.90;99.90;;;;;;5071847;28;20205;-80
2023/03/18 03:22:33;;;;;;;1.85;0.93;;;11.00;99.90;;;;;;5064133;28;20225;-81
2023/03/18 03:25:00;;;;;;;0.60;0.60;;;11.00;99.90;;;;;;5055671;28;20194;-81
2023/03/18 03:27:27;;;;;;;0.50;0.40;;;11.00;99.90;;;;;;5055552;28;20194;-80
2023/03/18 03:29:54;;;;;;;0.50;0.40;;;11.00;99.90;;;;;;5056009;28;20194;-80
2023/03/18 03:32:21;;;;;;;0.50;0.40;;;11.00;99.90;;;;;;5056232;28;20445;-80
2023/03/18 03:34:50;;;;;;;0.50;0.40;;;10.80;99.90;;;;;;5055755;28;20455;-81
2023/03/18 03:37:17;;;;;;;0.50;0.40;;;10.80;99.90;;;;;;5061251;28;20688;-79
2023/03/18 03:39:44;;;;;;;1.80;0.98;;;10.80;99.90;;;;;;5056672;28;20668;-80
2023/03/18 03:42:11;;;;;;;0.73;0.73;;;10.80;99.90;;;;;;5055696;28;20194;-80
2023/03/18 03:44:38;;;;;;;0.50;0.40;;;10.80;99.90;;;;;;5057411;28;20195;-80
2023/03/18 03:47:05;;;;;;;0.50;0.40;;;10.90;99.90;;;;;;5080801;28;20276;-80
2023/03/18 03:49:32;;;;;;;2.55;0.60;;;10.90;99.90;;;;;;5064302;28;20201;-80
2023/03/18 03:52:00;;;;;;;0.90;0.40;;;10.90;99.90;;;;;;5062197;28;20201;-80
2023/03/18 03:54:27;;;;;;;0.98;0.98;;;10.80;99.90;;;;;;5063676;28;20713;-80
2023/03/18 03:56:54;;;;;;;0.50;0.40;;;10.90;99.90;;;;;;5060948;28;20214;-81
2023/03/18 03:59:21;;;;;;;0.50;0.40;;;10.90;99.90;;;;;;5070986;28;20198;-80
2023/03/18 04:01:48;;;;;;;0.50;0.40;;;10.90;99.90;;;;;;5068487;28;20196;-80
2023/03/18 04:04:15;;;;;;;0.50;0.50;;;11.00;99.90;;;;;;5073012;28;20240;-80
2023/03/18 04:06:42;;;;;;;0.57;0.52;;;11.00;99.90;;;;;;5070392;28;20217;-81
2023/03/18 04:09:10;;;;;;;0.88;0.85;;;11.00;99.90;;;;;;5066483;28;20620;-80
2023/03/18 04:11:37;;;;;;;0.50;0.50;;;11.10;99.90;;;;;;5059011;28;20195;-80
2023/03/18 04:14:04;;;;;;;0.50;0.40;;;11.10;99.90;;;;;;5067350;28;20292;-80
2023/03/18 04:16:31;;;;;;;0.63;0.63;;;11.10;99.90;;;;;;5067314;28;20314;-80
2023/03/18 04:18:58;;;;;;;0.50;0.50;;;11.10;99.90;;;;;;5066044;28;20190;-80
2023/03/18 04:21:25;;;;;;;0.97;0.73;;;11.10;99.90;;;;;;5066659;28;20230;-79
2023/03/18 04:23:52;;;;;;;2.35;2.15;;;11.20;99.90;;;;;;5057951;28;20463;-79
2023/03/18 04:26:20;;;;;;;0.55;0.52;;;11.10;99.90;;;;;;5058505;28;20581;-79
2023/03/18 04:28:46;;;;;;;1.50;1.02;;;11.10;99.90;;;;;;5066282;28;20261;-79
2023/03/18 04:31:13;;;;;;;0.50;0.40;;;11.10;99.90;;;;;;5057836;28;20222;-79
2023/03/18 04:33:40;;;;;;;0.50;0.40;;;11.10;99.90;;;;;;5066423;28;20214;-80
2023/03/18 04:36:08;;;;;;;0.63;0.63;;;11.10;99.90;;;;;;5058132;28;20202;-79
2023/03/18 04:38:35;;;;;;;0.73;0.50;;;11.10;99.90;;;;;;5057425;28;20689;-79
2023/03/18 04:41:02;;;;;;;0.88;0.88;;;11.10;99.90;;;;;;5057549;28;20191;-80
2023/03/18 04:43:30;;;;;;;3.17;1.55;;;11.10;99.90;;;;;;5058859;28;20302;-80
2023/03/18 04:45:57;;;;;;;0.50;0.50;;;11.10;99.90;;;;;;5060504;28;20196;-79
2023/03/18 04:48:24;;;;;;;2.17;1.40;;;11.10;99.90;;;;;;5069598;28;20308;-80
2023/03/18 04:50:51;;;;;;;1.40;1.05;;;11.10;99.90;;;;;;5059133;28;20632;-80
2023/03/18 04:53:18;;;;;;;0.93;0.60;;;11.10;99.90;;;;;;5065542;28;20222;-81
2023/03/18 04:55:45;;;;;;;0.98;0.75;;;11.10;99.90;;;;;;5073428;28;20233;-79
2023/03/18 04:58:12;;;;;;;0.50;0.40;;;11.20;99.90;;;;;;5065612;28;20218;-79
2023/03/18 05:00:41;;;;;;;0.70;0.70;;;11.10;99.90;;;;;;5066601;28;20199;-79
2023/03/18 05:03:08;;;;;;;1.95;1.30;;;11.10;99.90;;;;;;5064637;28;20223;-80
2023/03/18 05:05:35;;;;;;;2.47;2.17;;;11.10;99.90;;;;;;5057469;28;20190;-80
2023/03/18 05:08:01;;;;;;;2.72;1.15;;;11.20;99.90;;;;;;5065875;28;20187;-81
2023/03/18 05:10:28;;;;;;;0.50;0.40;;;11.20;99.90;;;;;;5065251;28;20278;-80
2023/03/18 05:12:55;;;;;;;0.50;0.40;;;11.20;99.90;;;;;;5057618;28;20221;-79
2023/03/18 05:15:22;;;;;;;0.50;0.40;;;11.20;99.90;;;;;;5057536;28;20282;-80
2023/03/18 05:17:50;;;;;;;0.50;0.40;;;11.20;99.90;;;;;;5065057;28;20214;-81
2023/03/18 05:20:17;;;;;;;0.60;0.55;;;11.20;99.90;;;;;;5056968;28;20258;-81
2023/03/18 05:22:44;;;;;;;0.60;0.40;;;11.20;99.90;;;;;;5064754;28;20228;-80
2023/03/18 05:25:11;;;;;;;1.67;0.70;;;11.20;99.90;;;;;;5057169;28;20222;-79
2023/03/18 05:27:38;;;;;;;0.50;0.40;;;11.20;99.90;;;;;;5065500;28;20218;-79
2023/03/18 05:30:06;;;;;;;0.90;0.90;;;11.20;99.90;;;;;;5056964;28;20258;-81
2023/03/18 05:32:33;;;;;;;1.40;0.93;;;11.20;99.90;;;;;;5064874;28;20471;-80
2023/03/18 05:35:02;;;;;;;0.55;0.52;;;11.20;99.90;;;;;;5065123;28;20629;-80
2023/03/18 05:37:29;;;;;;;0.50;0.40;;;11.20;99.90;;;;;;5056496;28;20310;-80
2023/03/18 05:39:56;;;;;;;1.07;0.97;;;11.20;99.90;;;;;;5064187;28;20453;-81
2023/03/18 05:42:24;;;;;;;3.40;2.15;;;11.30;99.90;;;;;;5064195;28;20524;-82
2023/03/18 05:44:50;;;;;;;1.13;1.03;;;11.30;99.90;;;;;;5066543;28;20195;-81
2023/03/18 05:47:18;;;;;;;1.77;1.67;;;11.30;99.90;;;;;;5067551;28;20536;-80
2023/03/18 05:49:45;;;;;;;3.13;1.38;;;11.30;99.90;;;;;;5066125;28;20440;-81
2023/03/18 05:52:15;;;;;;;1.02;0.98;;;11.30;99.90;;;;;;5064627;28;20198;-82
2023/03/18 05:54:42;;;;;;;2.37;1.97;;;11.30;99.90;;;;;;5065148;28;20202;-83
2023/03/18 05:57:09;;;;;;;0.83;0.83;;;11.30;99.90;;;;;;5068334;28;20587;-82
2023/03/18 05:59:36;;;;;;;13.20;1.40;;;11.30;99.90;;;;;;5067794;28;20446;-80
2023/03/18 06:02:03;;;;;;;0.95;0.70;;;11.30;99.90;;;;;;5081888;28;20182;-82
2023/03/18 06:04:30;;;;;;;1.70;1.33;;;11.30;99.90;;;;;;5084481;28;20222;-82
2023/03/18 06:06:57;;;;;;;0.68;0.68;;;11.40;99.90;;;;;;5082945;28;20262;-83
2023/03/18 06:09:26;;;;;;;1.40;1.30;;;11.40;99.90;;;;;;5075756;28;20253;-79
2023/03/18 06:11:53;;;;;;;2.13;1.53;;;11.30;99.90;;;;;;5115860;22;20298;-77
2023/03/18 06:14:20;;;;;;;1.33;1.20;;;11.30;99.90;;;;;;5055819;28;20956;-77
2023/03/18 06:16:47;;;;;;;1.23;0.63;;;11.40;99.90;;;;;;5054446;28;20482;-76
2023/03/18 06:19:14;;;;;;;1.70;1.35;;;11.30;99.90;;;;;;5051885;28;20536;-77
2023/03/18 06:21:41;;;;;;;2.65;1.08;;;11.40;99.90;;;;;;5053287;28;20720;-76
2023/03/18 06:24:09;;;;;;;0.50;0.50;;;11.40;99.90;;;;;;5071710;28;20204;-76
2023/03/18 06:26:37;;;;;;;0.50;0.40;;;11.40;99.90;;;;;;5071201;28;20476;-76
2023/03/18 06:29:05;;;;;;;0.60;0.50;;;11.40;99.90;;;;;;5071951;28;20194;-76
2023/03/18 06:31:32;;;;;;;0.80;0.70;;;11.40;99.90;;;;;;5071804;28;20202;-76
2023/03/18 06:34:00;;;;;;;1.80;0.77;;;11.40;99.90;;;;;;5071328;28;20446;-77
2023/03/18 06:36:27;;;;;;;1.92;1.42;;;11.40;99.90;;;;;;5071166;28;20202;-76
2023/03/18 06:38:54;;;;;;;0.60;0.60;;;11.40;99.90;;;;;;5071144;28;20313;-77
2023/03/18 06:41:21;;;;;;;1.53;1.53;;;11.40;99.90;;;;;;5071271;28;20193;-77
2023/03/18 06:43:50;;;;;;;4.18;1.73;;;11.40;99.90;;;;;;5070870;28;20468;-77
2023/03/18 06:46:17;;;;;;;1.77;1.67;;;11.40;99.90;;;;;;5071253;28;20292;-76
2023/03/18 06:48:45;;;;;;;0.50;0.40;;;11.40;99.90;;;;;;5070977;28;20194;-76
2023/03/18 06:51:12;;;;;;;2.85;2.30;;;11.40;99.90;;;;;;5071121;28;20549;-77
2023/03/18 06:53:39;;;;;;;0.50;0.50;;;11.50;99.90;;;;;;5071036;28;20220;-77
2023/03/18 06:56:06;;;;;;;0.80;0.80;;;11.50;99.90;;;;;;5071125;28;20736;-76
2023/03/18 06:58:33;;;;;;;1.43;0.80;;;11.60;99.90;;;;;;5071304;28;20559;-77
2023/03/18 07:01:02;;;;;;;1.08;1.08;;;11.60;99.90;;;;;;5070823;28;20443;-77
2023/03/18 07:03:29;;;;;;;0.73;0.70;;;11.60;99.90;;;;;;5071031;28;20213;-76
2023/03/18 07:05:56;;;;;;;1.50;1.05;;;11.60;99.90;;;;;;5070932;28;20444;-77
2023/03/18 07:08:23;;;;;;;1.75;1.60;;;11.60;99.90;;;;;;5071070;28;20194;-76
2023/03/18 07:10:52;;;;;;;1.85;1.55;;;11.60;99.90;;;;;;5070866;28;20293;-77
2023/03/18 07:13:19;;;;;;;0.90;0.80;;;11.60;99.90;;;;;;5071119;28;20233;-76
2023/03/18 07:15:46;;;;;;;1.83;1.50;;;11.70;99.90;;;;;;5077150;28;20955;-77
2023/03/18 07:18:14;;;;;;;0.77;0.75;;;11.70;99.90;;;;;;5079660;28;20471;-78
2023/03/18 07:20:42;;;;;;;0.50;0.40;;;11.80;99.90;;;;;;5078920;28;20197;-77
2023/03/18 07:23:10;;;;;;;0.50;0.50;;;12.00;99.90;;;;;;5077554;28;20468;-77
2023/03/18 07:25:37;;;;;;;0.50;0.43;;;12.20;99.90;;;;;;5077619;28;20523;-75
2023/03/18 07:28:04;;;;;;;0.60;0.57;;;12.50;99.90;;;;;;5077314;28;20436;-77
2023/03/18 07:30:32;;;;;;;0.73;0.73;;;12.80;99.90;;;;;;5077687;28;20440;-77
2023/03/18 07:32:58;;;;;;;2.80;2.03;;;13.10;99.90;;;;;;5077377;28;20880;-76
2023/03/18 07:35:27;;;;;;;1.27;1.17;;;13.70;99.90;;;;;;5077637;28;20450;-77
2023/03/18 07:37:54;;;;;;;0.50;0.40;;;14.00;99.90;;;;;;5077403;28;20993;-77
2023/03/18 07:40:21;;;;;;;10.23;2.00;;;14.70;99.90;;;;;;5077496;28;20436;-77
2023/03/18 07:42:50;;;;;;;1.33;0.70;;;15.10;99.90;;;;;;5076865;28;20839;-78
2023/03/18 07:45:17;;;;;;;0.80;0.60;;;14.80;99.90;;;;;;5078621;28;20542;-79
2023/03/18 07:47:44;;;;;;;0.97;0.87;;;15.00;99.90;;;;;;5078185;28;20440;-77
2023/03/18 07:50:12;;;;;;;0.50;0.40;;;14.80;99.90;;;;;;5078257;28;20472;-78
2023/03/18 07:52:40;;;;;;;1.13;0.70;;;15.00;99.90;;;;;;5077664;28;20521;-77
2023/03/18 07:55:09;;;;;;;0.73;0.73;;;15.60;99.90;;;;;;5077530;28;20789;-76
2023/03/18 07:57:35;;;;;;;1.83;1.50;;;16.20;99.90;;;;;;5077099;28;20472;-76
2023/03/18 08:00:04;;;;;;;1.20;1.10;;;16.30;99.90;;;;;;5077015;28;20447;-76
2023/03/18 08:02:30;;;;;;;2.13;0.90;;;16.10;99.90;;;;;;5077366;28;20897;-76
2023/03/18 08:04:57;;;;;;;1.83;0.80;;;16.20;99.90;;;;;;5077661;28;20439;-77
2023/03/18 08:07:24;;;;;;;1.23;1.17;;;16.50;99.90;;;;;;5077654;28;20436;-77
2023/03/18 08:09:52;;;;;;;2.07;1.83;;;16.50;99.90;;;;;;5077194;28;20443;-77
2023/03/18 08:12:19;;;;;;;1.37;0.90;;;16.70;99.90;;;;;;5077341;28;20471;-76
2023/03/18 08:14:47;;;;;;;0.50;0.30;;;17.60;99.90;;;;;;5076838;28;20440;-78
2023/03/18 08:17:14;;;;;;;1.63;1.27;;;18.50;99.90;;;;;;5077318;28;20435;-77
2023/03/18 08:19:41;;;;;;;0.60;0.50;;;19.10;99.90;;;;;;5076982;28;20515;-77
2023/03/18 08:22:08;;;;;;;3.73;1.10;;;19.30;99.90;;;;;;5077062;28;20467;-77
2023/03/18 08:24:36;;;;;;;2.40;1.27;;;19.30;99.90;;;;;;5077125;28;20444;-78
2023/03/18 08:27:04;;;;;;;5.00;0.60;;;19.10;99.90;;;;;;5068877;28;20439;-76
2023/03/18 08:29:32;;;;;;;0.50;0.40;;;19.50;99.90;;;;;;5075914;28;20444;-77
2023/03/18 08:31:59;;;;;;;6.70;2.07;;;19.60;99.90;;;;;;5073558;28;20960;-77
2023/03/18 08:34:25;;;;;;;4.53;0.80;;;19.20;99.90;;;;;;5073776;28;20436;-77
2023/03/18 08:36:52;;;;;;;0.90;0.90;;;18.60;99.90;;;;;;5073453;28;20532;-77
2023/03/18 08:39:19;;;;;;;0.50;0.40;;;18.40;99.90;;;;;;5073662;28;20567;-77
2023/03/18 08:41:47;;;;;;;1.93;0.70;;;18.40;99.90;;;;;;5073371;28;20468;-78
2023/03/18 08:44:16;;;;;;;0.50;0.40;;;19.70;99.90;;;;;;5073970;28;20444;-77
2023/03/18 08:46:43;;;;;;;1.57;1.20;;;19.10;99.90;;;;;;5073215;28;20440;-78
2023/03/18 08:49:11;;;;;;;0.80;0.60;;;17.60;99.90;;;;;;5073349;28;20440;-77
2023/03/18 08:51:38;;;;;;;2.00;1.20;;;16.80;99.90;;;;;;5073328;28;20437;-75
2023/03/18 08:54:07;;;;;;;2.63;1.90;;;16.30;99.90;;;;;;5073556;28;20450;-76
2023/03/18 08:56:34;;;;;;;0.50;0.40;;;15.70;99.90;;;;;;5073296;28;20440;-76
2023/03/18 08:59:00;;;;;;;0.67;0.67;;;15.30;99.90;;;;;;5073015;28;20476;-76
2023/03/18 09:01:29;;;;;;;0.63;0.63;;;15.30;99.90;;;;;;5073753;28;20531;-78
2023/03/18 09:03:57;;;;;;;1.43;0.90;;;15.30;99.90;;;;;;5073951;28;20491;-79
2023/03/18 09:06:25;;;;;;;0.50;0.40;;;15.00;99.90;;;;;;5074463;28;20535;-79
2023/03/18 09:08:52;;;;;;;0.50;0.40;;;15.00;99.90;;;;;;5073389;28;20447;-77
2023/03/18 09:11:19;;;;;;;0.53;0.53;;;15.10;99.90;;;;;;5073220;28;20447;-78
2023/03/18 09:13:46;;;;;;;0.60;0.40;;;15.50;99.90;;;;;;5072717;28;20474;-77
2023/03/18 09:16:13;;;;;;;0.70;0.50;;;16.00;99.90;;;;;;5072911;28;20995;-77
2023/03/18 09:18:41;;;;;;;0.70;0.70;;;17.30;99.90;;;;;;5072621;28;20472;-77
2023/03/18 09:21:08;;;;;;;1.33;0.60;;;17.90;99.90;;;;;;5072806;28;20531;-76
2023/03/18 09:23:35;;;;;;;0.60;0.60;;;17.60;99.90;;;;;;5073207;28;20488;-77
2023/03/18 09:26:02;;;;;;;0.50;0.30;;;18.10;99.90;;;;;;5074200;28;20441;-76
2023/03/18 09:28:29;;;;;;;0.80;0.70;;;17.90;99.90;;;;;;5074665;28;20789;-77
2023/03/18 09:30:56;;;;;;;0.50;0.40;;;17.60;99.90;;;;;;5073389;28;20444;-77
2023/03/18 09:33:23;;;;;;;0.60;0.50;;;17.30;99.90;;;;;;5073228;28;20834;-77
2023/03/18 09:35:51;;;;;;;0.60;0.40;;;18.20;99.90;;;;;;5073897;28;20448;-77
2023/03/18 09:38:20;;;;;;;0.87;0.70;;;19.30;99.90;;;;;;5073052;28;20564;-78
2023/03/18 09:41:01;;;;;;;0.60;0.53;;;19.90;99.90;;;;;;5073204;28;20448;-75
2023/03/18 09:43:50;;;;;;;0.50;0.30;;;20.00;99.90;;;;;;5072689;28;20460;-78
2023/03/18 09:46:26;;;;;;;0.50;0.50;;;19.40;99.90;;;;;;5067359;28;20858;-78
2023/03/18 09:49:05;;;;;;;0.70;0.70;;;18.60;99.90;;;;;;5072217;28;20788;-77
2023/03/18 09:51:45;;;;;;;0.50;0.37;;;18.20;99.90;;;;;;5072428;28;20440;-78
2023/03/18 09:54:16;;;;;;;0.50;0.40;;;17.30;99.90;;;;;;5066600;28;20494;-79
2023/03/18 09:56:45;;;;;;;0.60;0.57;;;16.70;99.90;;;;;;5073512;28;20908;-78
2023/03/18 09:59:20;;;;;;;0.60;0.60;;;16.50;99.90;;;;;;5072742;28;20518;-79
2023/03/18 10:01:50;;;;;;;5.70;2.93;;;16.10;99.90;;;;;;5072965;28;21174;-79
2023/03/18 10:04:22;;;;;;;0.50;0.40;;;15.70;99.90;;;;;;5073181;28;20476;-78
2023/03/18 10:06:53;;;;;;;0.50;0.40;;;16.00;99.90;;;;;;5073142;28;20456;-79
2023/03/18 10:09:27;;;;;;;0.50;0.40;;;16.40;99.90;;;;;;5073330;28;20441;-78
2023/03/18 10:12:01;;;;;;;0.80;0.70;;;17.30;99.90;;;;;;5072779;28;20478;-77
2023/03/18 10:14:40;;;;;;;0.50;0.50;;;18.90;99.90;;;;;;5072811;28;20458;-77
2023/03/18 10:17:18;;;;;;;0.77;0.77;;;20.50;99.90;;;;;;5064294;28;20448;-77
2023/03/18 10:19:48;;;;;;;0.60;0.50;;;21.40;99.90;;;;;;5071218;28;20471;-77
2023/03/18 10:22:42;;;;;;;0.83;0.67;;;22.90;97.00;;;;;;5071721;28;20499;-77
2023/03/18 10:25:19;;;;;;;0.50;0.30;;;23.60;90.70;;;;;;5064580;28;20447;-76
2023/03/18 10:27:56;;;;;;;0.60;0.50;;;24.60;88.80;;;;;;5071080;28;20942;-77
2023/03/18 10:30:35;;;;;;;0.60;0.50;;;25.70;82.50;;;;;;5071727;28;20923;-77
2023/03/18 10:33:08;;;;;;;2.73;1.43;;;26.70;74.00;;;;;;5071571;28;20467;-77
2023/03/18 10:35:41;;;;;;;0.70;0.40;;;27.00;71.80;;;;;;5071705;28;20437;-76
2023/03/18 10:38:17;;;;;;;0.50;0.40;;;27.80;69.50;;;;;;5071456;28;20483;-78
2023/03/18 10:40:48;;;;;;;0.50;0.40;;;27.40;67.10;;;;;;5071031;28;20472;-77
2023/03/18 10:43:18;;;;;;;0.50;0.30;;;26.00;68.80;;;;;;5071664;28;20468;-77
2023/03/18 10:45:47;;;;;;;0.50;0.40;;;25.50;68.70;;;;;;5071366;28;20858;-77
2023/03/18 10:48:21;;;;;;;0.50;0.40;;;24.70;70.40;;;;;;5071324;28;20450;-76
2023/03/18 10:50:54;;;;;;;1.00;0.53;;;23.80;73.20;;;;;;5071152;28;20452;-77
2023/03/18 10:53:27;;;;;;;0.50;0.40;;;24.00;74.10;;;;;;5070771;28;20468;-76
2023/03/18 10:55:59;;;;;;;0.50;0.30;;;24.40;73.30;;;;;;5071097;28;20492;-76
2023/03/18 10:58:27;;;;;;;0.50;0.30;;;24.20;72.10;;;;;;5071188;28;20486;-77
2023/03/18 11:00:54;;;;;;;0.50;0.40;;;25.00;73.40;;;;;;5070750;28;20501;-77
2023/03/18 11:03:26;;;;;;;0.60;0.50;;;26.00;70.00;;;;;;5071270;28;20463;-76
2023/03/18 11:05:54;;;;;;;0.60;0.60;;;25.80;69.80;;;;;;5071168;28;20554;-76
2023/03/18 11:08:33;;;;;;;0.50;0.40;;;25.80;68.00;;;;;;5071466;28;20444;-77
2023/03/18 11:11:17;;;;;;;0.80;0.50;;;26.30;67.20;;;;;;5070747;28;20509;-77
2023/03/18 11:13:48;;;;;;;0.50;0.30;;;26.70;65.80;;;;;;5070454;28;20460;-77
2023/03/18 11:16:24;;;;;;;0.87;0.67;;;26.70;64.90;;;;;;5070762;28;20519;-77
2023/03/18 11:18:53;;;;;;;0.50;0.30;;;26.00;65.50;;;;;;5070549;28;21013;-76
2023/03/18 11:21:20;;;;;;;0.63;0.50;;;25.70;67.70;;;;;;5070928;28;20859;-77
2023/03/18 11:24:09;;;;;;;0.70;0.50;;;25.80;65.60;;;;;;5070396;28;21010;-77
2023/03/18 11:26:47;;;;;;;0.60;0.50;;;25.60;66.30;;;;;;5070196;28;20493;-76
2023/03/18 11:29:18;;;;;;;0.70;0.40;;;24.90;69.00;;;;;;5063846;28;20436;-76
2023/03/18 11:31:50;;;;;;;0.50;0.40;;;24.90;67.50;;;;;;5070455;28;20448;-77
2023/03/18 11:34:18;;;;;;;0.50;0.40;;;24.90;67.80;;;;;;5070614;28;20445;-77
2023/03/18 11:36:54;;;;;;;0.50;0.30;;;25.00;69.10;;;;;;5070252;28;20455;-77
2023/03/18 11:39:23;;;;;;;0.50;0.30;;;24.90;69.70;;;;;;5070460;28;20478;-77
2023/03/18 11:41:52;;;;;;;0.50;0.30;;;25.70;68.40;;;;;;5070496;28;20471;-77
2023/03/18 11:44:25;;;;;;;0.50;0.30;;;26.50;66.90;;;;;;5070974;28;20955;-78
2023/03/18 11:46:55;;;;;;;1.43;1.33;;;25.60;64.50;;;;;;5070167;28;20943;-76
2023/03/18 11:49:25;;;;;;;0.50;0.30;;;25.50;66.80;;;;;;5070316;28;20490;-78
2023/03/18 11:51:58;;;;;;;0.50;0.30;;;26.60;68.50;;;;;;5070740;28;20495;-77
2023/03/18 11:54:50;;;;;;;0.50;0.43;;;28.20;66.70;;;;;;5070558;28;20441;-78
2023/03/18 11:57:23;;;;;;;0.50;0.30;;;27.90;61.70;;;;;;5063719;28;20444;-77
2023/03/18 12:00:00;;;;;;;0.50;0.30;;;27.90;62.00;;;;;;5070041;28;20487;-77
2023/03/18 12:02:50;;;;;;;0.50;0.30;;;28.60;60.40;;;;;;5070557;28;20475;-77
2023/03/18 12:05:37;;;;;;;0.53;0.47;;;28.60;59.50;;;;;;5064860;28;20458;-77
2023/03/18 12:08:15;;;;;;;0.50;0.30;;;27.90;59.40;;;;;;5066072;28;20779;-77
2023/03/18 12:10:47;;;;;;;0.50;0.30;;;27.10;60.90;;;;;;5074012;28;20811;-75
2023/03/18 12:15:47;;;;;;;1.23;0.83;;;27.10;59.50;;;;;;5121493;22;20480;-82
2023/03/18 12:18:29;;;;;;;0.50;0.30;;;26.50;60.50;;;;;;5061517;28;20256;-81
2023/03/18 12:21:03;;;;;;;0.50;0.30;;;25.30;62.40;;;;;;5076658;28;20792;-82
2023/03/18 12:23:56;;;;;;;0.50;0.40;;;24.90;63.40;;;;;;5079247;28;20538;-81
2023/03/18 12:26:34;;;;;;;0.70;0.67;;;24.90;64.30;;;;;;5088986;28;20447;-81
2023/03/18 12:29:50;;;;;;;0.50;0.30;;;24.50;63.70;;;;;;5097654;28;20423;-83
2023/03/18 12:32:26;;;;;;;0.50;0.40;;;24.60;64.50;;;;;;5090491;28;20450;-82
2023/03/18 12:35:08;;;;;;;0.50;0.30;;;24.20;64.80;;;;;;5097826;28;20462;-83
2023/03/18 12:37:49;;;;;;;0.50;0.30;;;23.40;65.90;;;;;;5097553;28;20474;-81
2023/03/18 12:40:45;;;;;;;0.50;0.40;;;22.20;67.40;;;;;;5089662;28;20506;-82
2023/03/18 12:43:30;;;;;;;0.50;0.30;;;21.70;69.60;;;;;;5088712;28;20467;-83
2023/03/18 12:46:03;;;;;;;0.50;0.30;;;21.10;71.50;;;;;;5094430;28;20439;-83
2023/03/18 12:48:33;;;;;;;0.50;0.40;;;20.80;75.40;;;;;;5094654;28;20435;-82
2023/03/18 12:51:04;;;;;;;0.57;0.50;;;20.70;75.00;;;;;;5094507;28;20440;-82
2023/03/18 12:53:35;;;;;;;1.20;1.00;;;20.60;75.50;;;;;;5095285;28;20448;-83
2023/03/18 12:56:07;;;;;;;0.80;0.40;;;20.80;75.50;;;;;;5097048;28;20447;-83
2023/03/18 12:58:41;;;;;;;0.60;0.60;;;21.70;76.90;;;;;;5096541;28;20444;-83
2023/03/18 13:01:16;;;;;;;0.70;0.70;;;22.30;72.10;;;;;;5098655;28;20445;-83
2023/03/18 13:03:46;;;;;;;0.77;0.77;;;22.10;71.50;;;;;;5098571;28;20808;-82